»·PEaware :: N132KT KMTJ-KOLS

N132KT :: KMTJ-KOLS

FLIGHT INFORMATION

Flight Status: Arrived
Operator: Privately registered:
United States
More flights under this callsign
Pilot: Keith S. (1)
Aircraft: BEECH AIRCRAFT BARON
(BE58)
More flights by this aircraft type
Origin: KMTJ Montrose Regl
United States
Destination: KOLS Nogales Intl
United States
More flights between these airports :: More routes between these airports
Route:
File this flight plan on PilotEdge
Remarks:
Altitude:
(Current/Filed)
10,500ft
Speed:
(Current/Filed)
165kts
Departed: 12-Mar-20 05:24 AM
Arrived: 12-Mar-20 08:14 AM
Distance/Time
Traveled:
450nm/2:49
Distance/Time
To Go:
Arrived

Flight Plot

Page will automatically refresh every two minutes.

Flight plan parsing failed; only flown route is shown


Map Options




Map Legend


Flown Route
Filed Route
Departure Airport
Arrival Airport
Navaid (VOR, NDB)
Fix

Horizontal Profiles

Position Reports

Time Latitude Longitude Heading Altitude Ground
Speed
12-Mar-20 05:19 38.494196 -107.891372 230 5713ft 0kts
12-Mar-20 05:20 38.494196 -107.891372 229 5713ft 0kts
12-Mar-20 05:21 38.493374 -107.890474 138 5713ft 12kts
12-Mar-20 05:22 38.493223 -107.888414 49 5713ft 0kts
12-Mar-20 05:23 38.494617 -107.888867 319 5713ft 51kts
12-Mar-20 05:24 38.519903 -107.914874 326 5995ft 141kts
12-Mar-20 05:25 38.516667 -107.950530 200 6729ft 137kts
12-Mar-20 05:26 38.480036 -107.967895 198 7401ft 142kts
12-Mar-20 05:27 38.442838 -107.985095 198 8083ft 141kts
12-Mar-20 05:28 38.405824 -108.002125 199 8715ft 141kts
12-Mar-20 05:29 38.368736 -108.019160 199 9295ft 142kts
12-Mar-20 05:30 38.331471 -108.036258 199 9826ft 142kts
12-Mar-20 05:31 38.294241 -108.053316 199 10311ft 141kts
12-Mar-20 05:32 38.257126 -108.070304 199 10746ft 141kts
12-Mar-20 05:33 38.220145 -108.087217 199 11169ft 141kts
12-Mar-20 05:34 38.183063 -108.104152 199 11559ft 141kts
12-Mar-20 05:35 38.146006 -108.121053 200 11924ft 141kts
12-Mar-20 05:36 38.109017 -108.137909 200 12269ft 140kts
12-Mar-20 05:37 38.072479 -108.154543 200 12570ft 139kts
12-Mar-20 05:38 38.033963 -108.172068 200 12603ft 152kts
12-Mar-20 05:39 37.992887 -108.190724 200 12589ft 160kts
12-Mar-20 05:40 37.950230 -108.210071 200 12573ft 163kts
12-Mar-20 05:41 37.907124 -108.229603 200 12543ft 165kts
12-Mar-20 05:42 37.865388 -108.248488 200 12550ft 165kts
12-Mar-20 05:43 37.821833 -108.268175 200 12543ft 165kts
12-Mar-20 05:44 37.778235 -108.287858 200 12534ft 166kts
12-Mar-20 05:45 37.734671 -108.307499 200 12527ft 166kts
12-Mar-20 05:46 37.691129 -108.327107 200 12522ft 165kts
12-Mar-20 05:47 37.647376 -108.346786 200 12516ft 166kts
12-Mar-20 05:48 37.603978 -108.366280 200 12510ft 165kts
12-Mar-20 05:49 37.560414 -108.385824 200 12504ft 165kts
12-Mar-20 05:50 37.516785 -108.405373 200 12488ft 166kts
12-Mar-20 05:51 37.473153 -108.424899 200 12477ft 166kts
12-Mar-20 05:52 37.429631 -108.444353 200 12473ft 166kts
12-Mar-20 05:54 37.386364 -108.463668 200 12474ft 165kts
12-Mar-20 05:55 37.342713 -108.483130 200 12474ft 165kts
12-Mar-20 05:56 37.299170 -108.502520 200 12473ft 165kts
12-Mar-20 05:57 37.255813 -108.521804 200 12474ft 165kts
12-Mar-20 05:58 37.212298 -108.541135 200 12475ft 165kts
12-Mar-20 05:59 37.168866 -108.560405 200 12473ft 165kts
12-Mar-20 06:00 37.125532 -108.579608 200 12473ft 165kts
12-Mar-20 06:01 37.082097 -108.598791 201 12472ft 165kts
12-Mar-20 06:02 37.038690 -108.617956 203 12461ft 165kts
12-Mar-20 06:03 36.995136 -108.637187 204 12459ft 166kts
12-Mar-20 06:04 36.951790 -108.656325 205 12473ft 169kts
12-Mar-20 06:05 36.906563 -108.676287 205 12480ft 173kts
12-Mar-20 06:06 36.861550 -108.696089 205 12466ft 175kts
12-Mar-20 06:07 36.815548 -108.716298 205 12457ft 175kts
12-Mar-20 06:08 36.769471 -108.736511 205 12456ft 175kts
12-Mar-20 06:09 36.723488 -108.756661 205 12458ft 175kts
12-Mar-20 06:09 36.685102 -108.773463 205 12458ft 175kts
12-Mar-20 06:11 36.631248 -108.797006 205 12453ft 174kts
12-Mar-20 06:12 36.585319 -108.817053 205 12453ft 174kts
12-Mar-20 06:12 36.547248 -108.833655 205 12455ft 173kts
12-Mar-20 06:14 36.493985 -108.856848 205 12455ft 172kts
12-Mar-20 06:14 36.456119 -108.873320 205 12458ft 172kts
12-Mar-20 06:16 36.403097 -108.896352 205 12464ft 172kts
12-Mar-20 06:17 36.357428 -108.916164 205 12472ft 171kts
12-Mar-20 06:17 36.319727 -108.932500 205 12479ft 172kts
12-Mar-20 06:18 36.274145 -108.952233 205 12486ft 172kts
12-Mar-20 06:19 36.228334 -108.972041 205 12487ft 173kts
12-Mar-20 06:20 36.182250 -108.991942 204 12488ft 173kts
12-Mar-20 06:21 36.136368 -109.011728 204 12488ft 173kts
12-Mar-20 06:22 36.090337 -109.031555 204 12485ft 173kts
12-Mar-20 06:23 36.044472 -109.051285 204 12484ft 173kts
12-Mar-20 06:24 35.998533 -109.071020 203 12483ft 172kts
12-Mar-20 06:25 35.952912 -109.090594 203 12484ft 171kts
12-Mar-20 06:26 35.907379 -109.110114 203 12484ft 171kts
12-Mar-20 06:27 35.863711 -109.128802 203 12484ft 170kts
12-Mar-20 06:28 35.818481 -109.148135 203 12483ft 170kts
12-Mar-20 06:29 35.773408 -109.167387 202 12485ft 169kts
12-Mar-20 06:30 35.728370 -109.186599 202 12484ft 169kts
12-Mar-20 06:31 35.683482 -109.205728 202 12481ft 169kts
12-Mar-20 06:32 35.638212 -109.224984 202 12482ft 169kts
12-Mar-20 06:33 35.593448 -109.244005 202 12484ft 169kts
12-Mar-20 06:34 35.548587 -109.263048 202 12484ft 169kts
12-Mar-20 06:35 35.503601 -109.282121 202 12484ft 169kts
12-Mar-20 06:36 35.458588 -109.301188 202 12482ft 169kts
12-Mar-20 06:37 35.413575 -109.320228 202 12482ft 169kts
12-Mar-20 06:38 35.368496 -109.339268 202 12485ft 169kts
12-Mar-20 06:39 35.323544 -109.358236 202 12484ft 169kts
12-Mar-20 06:40 35.278383 -109.377279 202 12482ft 169kts
12-Mar-20 06:41 35.233462 -109.396190 202 12483ft 169kts
12-Mar-20 06:42 35.188738 -109.414999 202 12481ft 169kts
12-Mar-20 06:43 35.143952 -109.433804 202 12473ft 169kts
12-Mar-20 06:44 35.099398 -109.452504 202 12462ft 169kts
12-Mar-20 06:45 35.054277 -109.471412 202 12447ft 169kts
12-Mar-20 06:46 35.009680 -109.490053 202 12448ft 168kts
12-Mar-20 06:47 34.965812 -109.508392 203 12445ft 164kts
12-Mar-20 06:48 34.923016 -109.526270 203 12440ft 160kts
12-Mar-20 06:49 34.881928 -109.543414 203 12449ft 155kts
12-Mar-20 06:50 34.841143 -109.560404 203 12438ft 152kts
12-Mar-20 06:51 34.801077 -109.577085 203 12444ft 151kts
12-Mar-20 06:52 34.761284 -109.593636 203 12445ft 151kts
12-Mar-20 06:53 34.721363 -109.610222 203 12446ft 151kts
12-Mar-20 06:54 34.681505 -109.626761 203 12443ft 150kts
12-Mar-20 06:55 34.641837 -109.643205 203 12432ft 149kts
12-Mar-20 06:56 34.602671 -109.659420 203 12440ft 147kts
12-Mar-20 06:57 34.563929 -109.675460 203 12434ft 145kts
12-Mar-20 06:58 34.525871 -109.691183 203 12431ft 143kts
12-Mar-20 06:59 34.488432 -109.706645 203 12449ft 141kts
12-Mar-20 07:00 34.451149 -109.722033 203 12452ft 141kts
12-Mar-20 07:01 34.413761 -109.737444 203 12455ft 142kts
12-Mar-20 07:02 34.376181 -109.752919 203 12458ft 143kts
12-Mar-20 07:03 34.338312 -109.768498 203 12465ft 143kts
12-Mar-20 07:04 34.299952 -109.784286 202 12471ft 146kts
12-Mar-20 07:05 34.260964 -109.800282 202 12488ft 149kts
12-Mar-20 07:06 34.221318 -109.816535 202 12496ft 151kts
12-Mar-20 07:07 34.181194 -109.832970 202 12488ft 152kts
12-Mar-20 07:08 34.141013 -109.849427 202 12484ft 152kts
12-Mar-20 07:09 34.100773 -109.865883 202 12489ft 153kts
12-Mar-20 07:10 34.060354 -109.882391 202 12493ft 153kts
12-Mar-20 07:11 34.019609 -109.899021 202 12483ft 154kts
12-Mar-20 07:12 33.979199 -109.915491 202 12475ft 152kts
12-Mar-20 07:13 33.939731 -109.931567 202 12476ft 149kts
12-Mar-20 07:14 33.900000 -109.947734 202 12468ft 149kts
12-Mar-20 07:15 33.860680 -109.963698 202 12486ft 149kts
12-Mar-20 07:16 33.821155 -109.979777 202 12486ft 150kts
12-Mar-20 07:17 33.781397 -109.995931 202 12496ft 150kts
12-Mar-20 07:18 33.741640 -110.012029 202 12489ft 151kts
12-Mar-20 07:19 33.701251 -110.028377 202 12487ft 152kts
12-Mar-20 07:20 33.661058 -110.044636 202 12489ft 153kts
12-Mar-20 07:21 33.620245 -110.061148 202 12486ft 154kts
12-Mar-20 07:22 33.579306 -110.077652 202 12484ft 155kts
12-Mar-20 07:23 33.538060 -110.094305 202 12451ft 157kts
12-Mar-20 07:24 33.496164 -110.111172 202 12415ft 158kts
12-Mar-20 07:25 33.453639 -110.128285 202 12384ft 159kts
12-Mar-20 07:26 33.410884 -110.145474 202 12364ft 159kts
12-Mar-20 07:27 33.368236 -110.162602 202 12364ft 159kts
12-Mar-20 07:28 33.326008 -110.179546 202 12367ft 159kts
12-Mar-20 07:29 33.283793 -110.196467 202 12364ft 160kts
12-Mar-20 07:30 33.241484 -110.213408 202 12369ft 160kts
12-Mar-20 07:31 33.198862 -110.230457 202 12366ft 161kts
12-Mar-20 07:32 33.156152 -110.247526 202 12364ft 162kts
12-Mar-20 07:33 33.113341 -110.264615 201 12364ft 162kts
12-Mar-20 07:34 33.070676 -110.281668 200 12363ft 162kts
12-Mar-20 07:35 33.027712 -110.298785 199 12361ft 162kts
12-Mar-20 07:36 32.984479 -110.315981 198 12361ft 164kts
12-Mar-20 07:37 32.940935 -110.333272 198 12368ft 165kts
12-Mar-20 07:38 32.897533 -110.350494 198 12366ft 166kts
12-Mar-20 07:39 32.853217 -110.368070 198 12369ft 167kts
12-Mar-20 07:40 32.808894 -110.385634 198 12365ft 167kts
12-Mar-20 07:41 32.764527 -110.403198 198 12361ft 168kts
12-Mar-20 07:42 32.720233 -110.420714 198 12361ft 168kts
12-Mar-20 07:43 32.676033 -110.438176 198 12359ft 167kts
12-Mar-20 07:44 32.631418 -110.455782 198 12355ft 168kts
12-Mar-20 07:45 32.587017 -110.473285 198 12355ft 167kts
12-Mar-20 07:46 32.542688 -110.490742 198 12356ft 167kts
12-Mar-20 07:47 32.498316 -110.508198 198 12355ft 167kts
12-Mar-20 07:48 32.453999 -110.525614 198 12355ft 167kts
12-Mar-20 07:49 32.409670 -110.543017 198 12350ft 167kts
12-Mar-20 07:50 32.365447 -110.560360 198 12354ft 166kts
12-Mar-20 07:51 32.321518 -110.577570 198 12350ft 165kts
12-Mar-20 07:52 32.277899 -110.594642 198 12350ft 163kts
12-Mar-20 07:53 32.234891 -110.611456 198 12352ft 162kts
12-Mar-20 07:54 32.192127 -110.628159 198 12355ft 161kts
12-Mar-20 07:55 32.149491 -110.644796 198 12356ft 162kts
12-Mar-20 07:56 32.106417 -110.661584 197 12356ft 163kts
12-Mar-20 07:57 32.063225 -110.678404 197 12357ft 163kts
12-Mar-20 07:58 32.019931 -110.695246 197 12360ft 164kts
12-Mar-20 07:59 31.976328 -110.712191 197 12366ft 164kts
12-Mar-20 08:00 31.932434 -110.728333 191 12379ft 164kts
12-Mar-20 08:01 31.888186 -110.739003 191 12399ft 165kts
12-Mar-20 08:02 31.842993 -110.749551 190 12412ft 166kts
12-Mar-20 08:03 31.797309 -110.760159 190 12417ft 167kts
12-Mar-20 08:04 31.751183 -110.770860 190 12413ft 168kts
12-Mar-20 08:05 31.705746 -110.781396 190 12439ft 165kts
12-Mar-20 08:06 31.660610 -110.791840 190 12431ft 164kts
12-Mar-20 08:07 31.615637 -110.802242 190 12427ft 164kts
12-Mar-20 08:09 31.570694 -110.812626 190 12423ft 164kts
12-Mar-20 08:10 31.523569 -110.823507 190 11958ft 184kts
12-Mar-20 08:11 31.470801 -110.835679 190 11083ft 199kts
12-Mar-20 08:12 31.416405 -110.848646 197 9276ft 195kts
12-Mar-20 08:13 31.432163 -110.835173 164 5129ft 128kts
12-Mar-20 08:14 31.416388 -110.850401 316 3879ft 17kts

Navigation Log

Ident Type
Flight plan parsing failed, navigation log unavailable